createdAt,value
2022-07-25T00:02:02.843Z,99058.22
2022-07-25T00:04:31.267Z,99060.50
2022-07-25T00:06:59.558Z,99052.41
2022-07-25T00:09:27.350Z,99051.84
2022-07-25T00:11:55.130Z,99047.69
2022-07-25T00:14:23.061Z,99057.97
2022-07-25T00:16:50.967Z,99044.69
2022-07-25T00:19:18.885Z,99043.31
2022-07-25T00:21:46.703Z,99057.78
2022-07-25T00:24:14.460Z,99058.75
2022-07-25T00:26:42.257Z,99052.97
2022-07-25T00:29:10.149Z,99052.41
2022-07-25T00:31:37.957Z,99058.69
2022-07-25T00:34:06.287Z,99049.97
2022-07-25T00:36:34.242Z,99055.22
2022-07-25T00:39:02.120Z,99051.13
2022-07-25T00:41:30.164Z,99056.78
2022-07-25T00:43:58.147Z,99051.81
2022-07-25T00:46:26.101Z,99051.78
2022-07-25T00:48:55.138Z,99051.78
2022-07-25T00:51:23.402Z,99044.28
2022-07-25T00:53:51.170Z,99048.22
2022-07-25T00:56:19.141Z,99042.75
2022-07-25T00:58:46.989Z,99043.44
2022-07-25T01:01:15.215Z,99039.28
2022-07-25T01:03:43.521Z,99045.69
2022-07-25T01:06:11.431Z,99039.75
2022-07-25T01:08:39.560Z,99046.69
2022-07-25T01:11:08.254Z,99045.59
2022-07-25T01:13:36.147Z,99046.88
2022-07-25T01:16:04.302Z,99043.03
2022-07-25T01:18:32.197Z,99045.59
2022-07-25T01:21:00.261Z,99031.09
2022-07-25T01:23:28.318Z,99034.44
2022-07-25T01:26:00.203Z,99031.09
2022-07-25T01:28:28.470Z,99030.50
2022-07-25T01:30:56.380Z,99030.94
2022-07-25T01:33:24.279Z,99022.81
2022-07-25T01:35:52.562Z,99018.81
2022-07-25T01:38:20.421Z,99024.19
2022-07-25T01:40:48.420Z,99028.59
2022-07-25T01:43:16.293Z,99026.75
2022-07-25T01:45:44.109Z,99028.06
2022-07-25T01:48:12.077Z,99026.06
2022-07-25T01:50:39.987Z,99023.06
2022-07-25T01:53:07.994Z,99023.75
2022-07-25T01:55:35.927Z,99026.00
2022-07-25T01:58:04.402Z,99033.19
2022-07-25T02:00:34.240Z,99030.59
2022-07-25T02:03:20.488Z,99019.50
2022-07-25T02:05:48.242Z,99021.41
2022-07-25T02:08:16.535Z,99029.69
2022-07-25T02:13:21.814Z,99032.09
2022-07-25T02:15:50.672Z,99037.63
2022-07-25T02:18:18.764Z,99037.03
2022-07-25T02:20:46.968Z,99037.50
2022-07-25T02:23:14.843Z,99034.38
2022-07-25T02:25:42.634Z,99034.38
2022-07-25T02:28:10.762Z,99034.09
2022-07-25T02:30:39.003Z,99037.69
2022-07-25T02:33:06.857Z,99042.22
2022-07-25T02:35:35.857Z,99045.84
2022-07-25T02:38:03.904Z,99041.63
2022-07-25T02:40:31.808Z,99044.94
2022-07-25T02:42:59.703Z,99034.44
2022-07-25T02:45:28.109Z,99048.38
2022-07-25T02:48:09.099Z,99047.75
2022-07-25T02:50:38.736Z,99041.03
2022-07-25T02:53:06.682Z,99051.91
2022-07-25T02:55:34.602Z,99045.19
2022-07-25T02:58:02.988Z,99038.22
2022-07-25T03:00:31.432Z,99042.09
2022-07-25T03:02:59.294Z,99046.34
2022-07-25T03:05:27.047Z,99053.72
2022-07-25T03:07:55.069Z,99050.44
2022-07-25T03:10:22.925Z,99058.09
2022-07-25T03:12:50.760Z,99055.28
2022-07-25T03:15:18.551Z,99054.34
2022-07-25T03:17:46.457Z,99057.84
2022-07-25T03:20:14.439Z,99060.44
2022-07-25T03:22:42.424Z,99051.53
2022-07-25T03:25:15.844Z,99053.09
2022-07-25T03:27:50.278Z,99049.19
2022-07-25T03:30:18.497Z,99057.16
2022-07-25T03:32:46.297Z,99051.47
2022-07-25T03:35:14.121Z,99048.88
2022-07-25T03:37:42.599Z,99054.81
2022-07-25T03:40:11.258Z,99055.13
2022-07-25T03:42:39.113Z,99059.66
2022-07-25T03:45:07.852Z,99054.88
2022-07-25T03:47:35.639Z,99061.16
2022-07-25T03:50:04.038Z,99051.03
2022-07-25T03:52:31.807Z,99061.59
2022-07-25T03:54:59.516Z,99067.53
2022-07-25T03:57:27.295Z,99068.88
2022-07-25T03:59:55.083Z,99065.53
2022-07-25T04:02:23.050Z,99067.28
2022-07-25T04:04:51.715Z,99069.34
2022-07-25T04:07:19.857Z,99069.81
2022-07-25T04:09:47.686Z,99068.25
2022-07-25T04:12:15.510Z,99076.47
2022-07-25T04:14:43.400Z,99068.41
2022-07-25T04:17:11.247Z,99076.41
2022-07-25T04:19:39.120Z,99083.13
2022-07-25T04:22:06.992Z,99077.94
2022-07-25T04:24:34.782Z,99078.50
2022-07-25T04:27:02.538Z,99075.13
2022-07-25T04:29:30.263Z,99057.78
2022-07-25T04:31:58.202Z,99070.28
2022-07-25T04:34:26.338Z,99064.13
2022-07-25T04:36:54.081Z,99061.78
2022-07-25T04:39:21.831Z,99066.38
2022-07-25T04:41:49.754Z,99071.22
2022-07-25T04:44:17.549Z,99066.56
2022-07-25T04:46:45.323Z,99062.47
2022-07-25T04:49:13.234Z,99071.84
2022-07-25T04:51:41.099Z,99071.69
2022-07-25T04:54:09.896Z,99071.75
2022-07-25T04:56:37.993Z,99067.47
2022-07-25T04:59:07.221Z,99069.66
2022-07-25T05:01:35.920Z,99071.03
2022-07-25T05:04:04.482Z,99071.00
2022-07-25T05:06:33.276Z,99065.97
2022-07-25T05:09:01.238Z,99057.03
2022-07-25T05:11:29.037Z,99061.25
2022-07-25T05:13:56.884Z,99063.09
2022-07-25T05:16:24.703Z,99062.13
2022-07-25T05:18:52.515Z,99057.56
2022-07-25T05:21:20.416Z,99050.13
2022-07-25T05:23:48.323Z,99048.72
2022-07-25T05:26:16.231Z,99055.56
2022-07-25T05:28:44.320Z,99054.38
2022-07-25T05:31:12.154Z,99057.59
2022-07-25T05:33:39.975Z,99057.19
2022-07-25T05:36:09.173Z,99043.59
2022-07-25T05:38:37.208Z,99049.69
2022-07-25T05:41:05.338Z,99041.03
2022-07-25T05:43:33.208Z,99036.94
2022-07-25T05:46:05.935Z,99046.38
2022-07-25T05:48:33.683Z,99036.56
2022-07-25T05:51:01.659Z,99033.25
2022-07-25T05:53:29.644Z,99026.34
2022-07-25T05:55:57.522Z,99022.75
2022-07-25T05:58:29.598Z,99027.47
2022-07-25T06:00:59.033Z,99015.59
2022-07-25T06:03:26.995Z,99020.78
2022-07-25T06:05:56.804Z,99015.66
2022-07-25T06:08:31.041Z,99019.53
2022-07-25T06:10:59.270Z,99026.06
2022-07-25T06:13:28.309Z,99018.25
2022-07-25T06:15:56.781Z,99016.94
2022-07-25T06:18:26.107Z,99019.81
2022-07-25T06:20:54.187Z,99013.78
2022-07-25T06:23:22.121Z,99011.41
2022-07-25T06:25:55.365Z,99010.31
2022-07-25T06:28:23.248Z,99001.69
2022-07-25T06:30:51.079Z,99002.94
2022-07-25T06:33:18.955Z,98997.63
2022-07-25T06:35:46.734Z,98999.13
2022-07-25T06:38:14.616Z,98994.31
2022-07-25T06:40:42.346Z,99001.50
2022-07-25T06:43:10.131Z,98985.22
2022-07-25T06:45:37.932Z,98987.63
2022-07-25T06:48:06.337Z,98979.59
2022-07-25T06:50:34.162Z,98971.06
2022-07-25T06:53:01.960Z,98969.81
2022-07-25T06:55:29.883Z,98975.34
2022-07-25T06:57:57.816Z,98972.78
2022-07-25T07:00:25.887Z,98965.72
2022-07-25T07:03:01.426Z,98965.25
2022-07-25T07:05:36.415Z,98952.19
2022-07-25T07:08:04.905Z,98959.69
2022-07-25T07:10:32.779Z,98959.38
2022-07-25T07:13:13.564Z,98956.22
2022-07-25T07:15:50.406Z,98952.88
2022-07-25T07:18:20.533Z,98956.25
2022-07-25T07:20:48.686Z,98942.50
2022-07-25T07:23:16.913Z,98945.41
2022-07-25T07:25:47.309Z,98939.41
2022-07-25T07:28:16.126Z,98933.81
2022-07-25T07:31:14.713Z,98937.44
2022-07-25T07:33:33.571Z,98935.66
2022-07-25T07:36:02.165Z,98931.66
2022-07-25T07:38:30.014Z,98935.16
2022-07-25T07:40:57.807Z,98930.03
2022-07-25T07:43:29.896Z,98932.28
2022-07-25T07:46:01.108Z,98932.22
2022-07-25T07:48:31.115Z,98919.94
2022-07-25T07:51:01.635Z,98922.94
2022-07-25T07:53:48.969Z,98930.09
2022-07-25T07:56:19.258Z,98914.75
2022-07-25T07:58:47.308Z,98909.41
2022-07-25T08:01:15.263Z,98914.19
2022-07-25T08:03:43.270Z,98919.00
2022-07-25T08:06:11.210Z,98915.16
2022-07-25T08:08:39.703Z,98923.19
2022-07-25T08:11:07.507Z,98909.00
2022-07-25T08:13:35.788Z,98908.88
2022-07-25T08:16:04.726Z,98918.72
2022-07-25T08:18:33.764Z,98905.63
2022-07-25T08:21:05.495Z,98914.84
2022-07-25T08:23:38.942Z,98906.19
2022-07-25T08:26:07.845Z,98899.97
2022-07-25T08:28:35.656Z,98903.06
2022-07-25T08:31:06.766Z,98905.78
2022-07-25T08:33:34.818Z,98895.69
2022-07-25T08:36:02.629Z,98899.66
2022-07-25T08:38:30.507Z,98889.09
2022-07-25T08:40:59.975Z,98892.00
2022-07-25T08:43:33.137Z,98890.91
2022-07-25T08:46:03.065Z,98886.78
2022-07-25T08:48:31.411Z,98885.81
2022-07-25T08:51:01.431Z,98885.66
2022-07-25T08:53:33.528Z,98871.28
2022-07-25T08:56:11.284Z,98881.47
2022-07-25T08:58:43.856Z,98877.47
2022-07-25T09:01:14.111Z,98871.28
2022-07-25T09:03:44.938Z,98875.63
2022-07-25T09:06:22.720Z,98871.53
2022-07-25T09:09:00.619Z,98863.13
2022-07-25T09:11:38.414Z,98868.56
2022-07-25T09:14:10.615Z,98861.38
2022-07-25T09:16:41.720Z,98856.34
2022-07-25T09:19:14.131Z,98859.09
2022-07-25T09:21:45.437Z,98859.34
2022-07-25T09:24:21.058Z,98847.75
2022-07-25T09:26:56.436Z,98848.41
2022-07-25T09:29:33.603Z,98850.09
2022-07-25T09:32:13.540Z,98847.03
2022-07-25T09:34:43.665Z,98845.06
2022-07-25T09:37:14.248Z,98836.91
2022-07-25T09:39:48.753Z,98838.13
2022-07-25T09:42:33.080Z,98831.66
2022-07-25T09:45:16.080Z,98824.41
2022-07-25T09:47:59.020Z,98831.13
2022-07-25T09:50:29.858Z,98820.91
2022-07-25T09:53:02.084Z,98825.31
2022-07-25T09:55:31.396Z,98825.75
2022-07-25T09:57:59.263Z,98808.41
2022-07-25T10:00:29.489Z,98815.53
2022-07-25T10:03:18.206Z,98816.16
2022-07-25T10:06:04.839Z,98808.56
2022-07-25T10:08:38.785Z,98808.13
2022-07-25T10:11:20.085Z,98802.22
2022-07-25T10:13:48.786Z,98799.97
2022-07-25T10:16:27.710Z,98798.84
2022-07-25T10:18:58.831Z,98795.75
2022-07-25T10:21:28.485Z,98797.72
2022-07-25T10:24:02.681Z,98789.47
2022-07-25T10:26:32.058Z,98783.69
2022-07-25T10:29:02.025Z,98780.25
2022-07-25T10:31:32.551Z,98776.53
2022-07-25T10:34:07.224Z,98766.59
2022-07-25T10:36:49.442Z,98766.00
2022-07-25T10:39:19.771Z,98774.44
2022-07-25T10:41:59.328Z,98766.50
2022-07-25T10:44:39.642Z,98750.84
2022-07-25T10:47:11.290Z,98757.22
2022-07-25T10:50:13.901Z,98752.97
2022-07-25T10:52:46.225Z,98746.75
2022-07-25T10:55:24.018Z,98736.44
2022-07-25T10:58:17.880Z,98740.78
2022-07-25T11:00:46.109Z,98736.78
2022-07-25T11:03:18.105Z,98734.50
2022-07-25T11:05:47.762Z,98730.84
2022-07-25T11:08:22.072Z,98733.56
2022-07-25T11:10:53.682Z,98732.13
2022-07-25T11:13:21.967Z,98728.44
2022-07-25T11:15:50.209Z,98725.28
2022-07-25T11:18:18.699Z,98715.56
2022-07-25T11:20:46.507Z,98721.53
2022-07-25T11:23:22.284Z,98716.59
2022-07-25T11:25:51.443Z,98713.28
2022-07-25T11:28:19.197Z,98704.50
2022-07-25T11:30:47.632Z,98707.50
2022-07-25T11:33:17.648Z,98700.16
2022-07-25T11:35:46.551Z,98697.69
2022-07-25T11:38:15.240Z,98694.75
2022-07-25T11:40:44.790Z,98680.94
2022-07-25T11:43:21.811Z,98686.41
2022-07-25T11:46:06.655Z,98678.19
2022-07-25T11:48:40.680Z,98680.28
2022-07-25T11:51:19.659Z,98674.66
2022-07-25T11:53:51.199Z,98674.38
2022-07-25T11:59:11.186Z,98674.03
2022-07-25T12:01:42.075Z,98662.66
2022-07-25T12:04:18.545Z,98669.00
2022-07-25T12:06:50.712Z,98657.53
2022-07-25T12:09:21.563Z,98653.00
2022-07-25T12:11:50.023Z,98657.06
2022-07-25T12:14:17.947Z,98643.34
2022-07-25T12:16:45.959Z,98643.88
2022-07-25T12:19:22.307Z,98648.06
2022-07-25T12:21:50.177Z,98635.69
2022-07-25T12:24:18.104Z,98635.41
2022-07-25T12:26:45.951Z,98625.09
2022-07-25T12:29:13.867Z,98628.72
2022-07-25T12:31:41.736Z,98625.25
2022-07-25T12:34:09.589Z,98624.69
2022-07-25T12:36:43.941Z,98625.44
2022-07-25T12:39:12.144Z,98608.53
2022-07-25T12:41:42.591Z,98615.78
2022-07-25T12:44:10.739Z,98603.66
2022-07-25T12:46:40.406Z,98600.47
2022-07-25T12:49:09.123Z,98596.72
2022-07-25T12:51:37.262Z,98599.09
2022-07-25T12:54:05.363Z,98597.13
2022-07-25T12:56:34.559Z,98588.31
2022-07-25T12:59:02.663Z,98582.13
2022-07-25T13:01:30.643Z,98572.78
2022-07-25T13:03:58.510Z,98572.63
2022-07-25T13:06:26.360Z,98576.56
2022-07-25T13:08:54.165Z,98570.91
2022-07-25T13:11:21.976Z,98570.91
2022-07-25T13:13:49.743Z,98567.56
2022-07-25T13:16:17.827Z,98562.38
2022-07-25T13:18:45.713Z,98553.84
2022-07-25T13:21:13.711Z,98550.81
2022-07-25T13:23:41.764Z,98556.16
2022-07-25T13:26:09.824Z,98550.56
2022-07-25T13:28:37.593Z,98553.00
2022-07-25T13:31:08.247Z,98545.19
2022-07-25T13:33:35.995Z,98536.34
2022-07-25T13:36:04.402Z,98533.53
2022-07-25T13:38:34.762Z,98535.75
2022-07-25T13:41:02.871Z,98540.59
2022-07-25T13:43:30.714Z,98532.84
2022-07-25T13:45:58.639Z,98535.16
2022-07-25T13:48:29.835Z,98529.31
2022-07-25T13:50:59.367Z,98528.66
2022-07-25T13:53:30.147Z,98528.16
2022-07-25T13:56:00.062Z,98521.13
2022-07-25T13:58:28.617Z,98522.47
2022-07-25T14:00:56.554Z,98519.59
2022-07-25T14:03:24.486Z,98511.41
2022-07-25T14:05:52.528Z,98518.22
2022-07-25T14:08:20.638Z,98512.56
2022-07-25T14:10:48.380Z,98507.66
2022-07-25T14:13:16.141Z,98512.84
2022-07-25T14:15:45.037Z,98507.38
2022-07-25T14:18:13.093Z,98510.44
2022-07-25T14:20:41.032Z,98497.41
2022-07-25T14:23:08.891Z,98501.09
2022-07-25T14:25:36.619Z,98493.59
2022-07-25T14:28:05.040Z,98495.06
2022-07-25T14:30:32.955Z,98484.75
2022-07-25T14:33:01.184Z,98482.94
2022-07-25T14:35:32.322Z,98483.75
2022-07-25T14:38:01.008Z,98472.41
2022-07-25T14:40:28.839Z,98472.47
2022-07-25T14:42:56.794Z,98474.78
2022-07-25T14:45:24.510Z,98469.56
2022-07-25T14:47:52.388Z,98466.56
2022-07-25T14:50:20.759Z,98469.03
2022-07-25T14:52:48.611Z,98471.38
2022-07-25T14:55:16.442Z,98457.28
2022-07-25T14:57:45.344Z,98461.84
2022-07-25T15:00:13.944Z,98456.56
2022-07-25T15:02:41.977Z,98452.81
2022-07-25T15:05:10.331Z,98451.38
2022-07-25T15:07:38.557Z,98444.63
2022-07-25T15:10:06.701Z,98447.75
2022-07-25T15:12:34.592Z,98435.00
2022-07-25T15:15:02.400Z,98436.09
2022-07-25T15:17:30.188Z,98433.75
2022-07-25T15:20:00.728Z,98429.47
2022-07-25T15:22:28.558Z,98435.47
2022-07-25T15:27:44.359Z,98420.38
2022-07-25T15:30:13.421Z,98415.06
2022-07-25T15:32:43.071Z,98415.13
2022-07-25T15:35:11.118Z,98407.13
2022-07-25T15:37:39.109Z,98410.16
2022-07-25T15:40:08.535Z,98403.22
2022-07-25T15:42:38.916Z,98408.03
2022-07-25T15:45:32.083Z,98402.56
2022-07-25T15:47:56.663Z,98407.09
2022-07-25T15:50:24.902Z,98410.09
2022-07-25T15:52:52.768Z,98403.88
2022-07-25T15:55:20.859Z,98407.47
2022-07-25T15:57:48.826Z,98402.00
2022-07-25T16:00:16.728Z,98400.09
2022-07-25T16:02:45.567Z,98396.69
2022-07-25T16:05:14.119Z,98399.28
2022-07-25T16:07:42.772Z,98411.63
2022-07-25T16:10:11.644Z,98399.69
2022-07-25T16:12:39.720Z,98396.59
2022-07-25T16:15:08.803Z,98404.78
2022-07-25T16:17:37.754Z,98399.69
2022-07-25T16:20:07.637Z,98403.31
2022-07-25T16:22:35.922Z,98397.25
2022-07-25T16:25:05.192Z,98395.03
2022-07-25T16:27:33.176Z,98394.09
2022-07-25T16:30:02.048Z,98397.31
2022-07-25T16:32:29.818Z,98390.44
2022-07-25T16:34:58.260Z,98385.91
2022-07-25T16:37:26.123Z,98385.97
2022-07-25T16:39:54.011Z,98386.78
2022-07-25T16:42:21.806Z,98384.50
2022-07-25T16:44:49.668Z,98387.50
2022-07-25T16:47:17.619Z,98388.56
2022-07-25T16:49:45.453Z,98385.13
2022-07-25T16:52:14.383Z,98384.31
2022-07-25T16:54:42.247Z,98386.50
2022-07-25T16:57:10.037Z,98382.88
2022-07-25T16:59:37.843Z,98385.19
2022-07-25T17:02:05.791Z,98386.50
2022-07-25T17:04:33.856Z,98389.91
2022-07-25T17:07:02.222Z,98383.47
2022-07-25T17:09:30.280Z,98394.34
2022-07-25T17:11:58.302Z,98381.81
2022-07-25T17:14:30.218Z,98389.34
2022-07-25T17:16:59.000Z,98390.72
2022-07-25T17:19:28.020Z,98391.75
2022-07-25T17:21:57.438Z,98393.94
2022-07-25T17:24:25.888Z,98393.53
2022-07-25T17:26:53.844Z,98404.84
2022-07-25T17:29:21.888Z,98399.72
2022-07-25T17:31:49.726Z,98393.50
2022-07-25T17:34:17.500Z,98399.13
2022-07-25T17:36:45.717Z,98404.03
2022-07-25T17:39:13.997Z,98408.47
2022-07-25T17:41:41.900Z,98416.81
2022-07-25T17:44:12.200Z,98423.22
2022-07-25T17:46:40.276Z,98422.75
2022-07-25T17:49:08.287Z,98412.88
2022-07-25T17:51:36.085Z,98420.22
2022-07-25T17:54:04.372Z,98420.38
2022-07-25T17:56:33.906Z,98413.06
2022-07-25T17:59:02.505Z,98425.50
2022-07-25T18:01:30.331Z,98423.75
2022-07-25T18:03:58.453Z,98423.56
2022-07-25T18:06:29.565Z,98437.06
2022-07-25T18:08:58.268Z,98436.06
2022-07-25T18:11:26.479Z,98435.81
2022-07-25T18:13:54.307Z,98433.25
2022-07-25T18:16:22.898Z,98433.31
2022-07-25T18:18:50.741Z,98439.16
2022-07-25T18:21:18.618Z,98444.75
2022-07-25T18:23:46.372Z,98448.28
2022-07-25T18:26:14.432Z,98449.34
2022-07-25T18:28:42.461Z,98439.94
2022-07-25T18:31:11.290Z,98441.13
2022-07-25T18:33:39.260Z,98456.16
2022-07-25T18:36:07.959Z,98456.25
2022-07-25T18:38:36.989Z,98460.63
2022-07-25T18:41:28.013Z,98461.94
2022-07-25T18:43:54.601Z,98459.50
2022-07-25T18:46:22.561Z,98466.06
2022-07-25T18:48:51.865Z,98464.09
2022-07-25T18:51:20.939Z,98476.63
2022-07-25T18:53:49.732Z,98470.41
2022-07-25T18:56:17.686Z,98472.53
2022-07-25T18:58:46.119Z,98480.13
2022-07-25T19:01:14.277Z,98484.41
2022-07-25T19:03:42.213Z,98490.91
2022-07-25T19:06:10.447Z,98487.47
2022-07-25T19:08:38.709Z,98501.19
2022-07-25T19:11:07.030Z,98499.00
2022-07-25T19:13:53.403Z,98496.00
2022-07-25T19:16:21.413Z,98508.91
2022-07-25T19:18:49.655Z,98498.09
2022-07-25T19:21:17.544Z,98502.72
2022-07-25T19:23:50.487Z,98509.44
2022-07-25T19:26:21.151Z,98509.19
2022-07-25T19:28:50.430Z,98503.09
2022-07-25T19:31:18.382Z,98502.75
2022-07-25T19:33:46.470Z,98501.78
2022-07-25T19:36:15.044Z,98504.84
2022-07-25T19:38:42.915Z,98505.38
2022-07-25T19:41:10.804Z,98502.59
2022-07-25T19:43:38.657Z,98506.28
2022-07-25T19:46:07.052Z,98509.50
2022-07-25T19:48:35.165Z,98511.19
2022-07-25T19:51:03.185Z,98520.19
2022-07-25T19:53:32.609Z,98522.94
2022-07-25T19:56:01.370Z,98520.19
2022-07-25T19:58:29.514Z,98524.72
2022-07-25T20:00:57.377Z,98515.97
2022-07-25T20:03:25.244Z,98513.78
2022-07-25T20:05:53.043Z,98526.13
2022-07-25T20:08:20.858Z,98513.50
2022-07-25T20:10:48.660Z,98515.88
2022-07-25T20:13:16.829Z,98509.41
2022-07-25T20:15:45.032Z,98519.56
2022-07-25T20:18:17.451Z,98509.34
2022-07-25T20:20:47.309Z,98507.09
2022-07-25T20:23:15.288Z,98509.75
2022-07-25T20:25:43.239Z,98512.97
2022-07-25T20:28:11.446Z,98515.38
2022-07-25T20:30:39.915Z,98512.31
2022-07-25T20:33:09.634Z,98512.63
2022-07-25T20:35:38.502Z,98517.09
2022-07-25T20:38:09.367Z,98520.28
2022-07-25T20:40:48.077Z,98517.75
2022-07-25T20:43:17.438Z,98521.16
2022-07-25T20:45:45.712Z,98525.56
2022-07-25T20:48:15.871Z,98523.53
2022-07-25T20:50:44.965Z,98521.97
2022-07-25T20:53:13.114Z,98517.84
2022-07-25T20:55:41.067Z,98522.59
2022-07-25T20:58:09.265Z,98521.06
2022-07-25T21:00:37.348Z,98523.16
2022-07-25T21:03:05.268Z,98526.81
2022-07-25T21:05:37.871Z,98514.41
2022-07-25T21:08:07.036Z,98519.34
2022-07-25T21:10:35.223Z,98528.94
2022-07-25T21:13:03.614Z,98512.66
2022-07-25T21:15:31.625Z,98518.84
2022-07-25T21:17:59.931Z,98531.56
2022-07-25T21:20:28.205Z,98520.16
2022-07-25T21:22:56.106Z,98527.66
2022-07-25T21:25:24.023Z,98529.53
2022-07-25T21:27:52.225Z,98526.94
2022-07-25T21:30:20.253Z,98528.50
2022-07-25T21:32:48.122Z,98525.94
2022-07-25T21:35:16.067Z,98530.09
2022-07-25T21:37:43.998Z,98533.22
2022-07-25T21:40:12.049Z,98529.63
2022-07-25T21:42:39.967Z,98529.34
2022-07-25T21:45:08.654Z,98534.25
2022-07-25T21:47:36.461Z,98524.97
2022-07-25T21:50:24.881Z,98523.16
2022-07-25T21:52:53.622Z,98522.34
2022-07-25T21:55:21.985Z,98531.16
2022-07-25T21:57:51.518Z,98525.97
2022-07-25T22:00:20.851Z,98518.72
2022-07-25T22:02:49.079Z,98512.50
2022-07-25T22:05:18.804Z,98527.53
2022-07-25T22:07:47.998Z,98531.38
2022-07-25T22:10:18.569Z,98525.44
2022-07-25T22:12:46.707Z,98526.47
2022-07-25T22:15:15.418Z,98521.81
2022-07-25T22:17:49.205Z,98513.25
2022-07-25T22:20:20.381Z,98512.75
2022-07-25T22:22:49.042Z,98522.81
2022-07-25T22:25:17.795Z,98520.69
2022-07-25T22:27:45.799Z,98512.38
2022-07-25T22:30:18.666Z,98516.50
2022-07-25T22:32:50.746Z,98516.97
2022-07-25T22:35:18.566Z,98521.09
2022-07-25T22:37:46.769Z,98516.94
2022-07-25T22:40:15.009Z,98512.28
2022-07-25T22:42:42.865Z,98506.56
2022-07-25T22:45:11.381Z,98512.78
2022-07-25T22:47:39.265Z,98513.28
2022-07-25T22:50:08.421Z,98511.69
2022-07-25T22:52:36.330Z,98517.13
2022-07-25T22:55:04.739Z,98510.16
2022-07-25T22:57:37.077Z,98517.38
2022-07-25T23:00:12.019Z,98518.88
2022-07-25T23:02:40.573Z,98522.44
2022-07-25T23:05:09.298Z,98511.56
2022-07-25T23:07:37.979Z,98518.22
2022-07-25T23:10:06.937Z,98519.78
2022-07-25T23:12:34.741Z,98519.72
2022-07-25T23:15:03.117Z,98520.75
2022-07-25T23:17:31.235Z,98514.00
2022-07-25T23:19:59.237Z,98511.88
2022-07-25T23:22:29.030Z,98505.38
2022-07-25T23:24:58.602Z,98520.03
2022-07-25T23:27:27.081Z,98516.88
2022-07-25T23:29:54.899Z,98509.66
2022-07-25T23:32:22.706Z,98513.72
2022-07-25T23:34:50.556Z,98505.22
2022-07-25T23:37:18.360Z,98503.41
2022-07-25T23:39:46.175Z,98495.84
2022-07-25T23:42:13.904Z,98500.72
2022-07-25T23:44:42.328Z,98500.69
2022-07-25T23:47:12.397Z,98504.28
2022-07-25T23:49:40.597Z,98505.22
2022-07-25T23:52:08.562Z,98507.78
2022-07-25T23:54:38.331Z,98503.84
2022-07-25T23:57:07.378Z,98508.16
2022-07-25T23:59:36.399Z,98507.09
